Matad, Mongolia
Current Conditions -  °F | °C
As of 8:00 PM on Saturday 25 Oct 2014 (Local Time) from UIAA Reporting Station
Clear Clear  
Wind Chill: 19°   Ceiling: Unl
Heat Index: 19°   Visibility: 6mi
Dew Point: -2°   Wind: 2mph
Humidity: 39%   Direction: NA
Pressure: 30.27"   Gusts: NA
Location:  47.13°N, 115.64°E
Report Text: UIAA 251200Z VRB01MPS 9999 SKC M07/M19 Q1025 NOSIG RMK QFE71029CLRD70
Loading
Personal Weather Stations






























Interactive Weather Map
Tropical Storm Tracking
New forecast layout! Learn more

10-Day Weather Forecast

Advertisements
Track Severe Weather on mobile